createdAt,value
2022-08-24T00:02:05.091Z,98661.59
2022-08-24T00:04:32.857Z,98659.75
2022-08-24T00:07:01.337Z,98663.63
2022-08-24T00:09:29.490Z,98660.47
2022-08-24T00:11:55.994Z,98660.09
2022-08-24T00:14:22.845Z,98664.69
2022-08-24T00:16:49.899Z,98670.88
2022-08-24T00:19:16.590Z,98670.09
2022-08-24T00:21:43.566Z,98667.09
2022-08-24T00:24:10.240Z,98673.09
2022-08-24T00:26:37.075Z,98668.94
2022-08-24T00:29:07.397Z,98666.09
2022-08-24T00:31:34.739Z,98667.63
2022-08-24T00:34:01.704Z,98670.34
2022-08-24T00:36:28.353Z,98667.34
2022-08-24T00:38:54.997Z,98672.91
2022-08-24T00:41:22.733Z,98671.06
2022-08-24T00:44:00.632Z,98669.22
2022-08-24T00:46:49.313Z,98662.34
2022-08-24T00:49:27.176Z,98658.00
2022-08-24T00:52:04.815Z,98655.00
2022-08-24T00:54:36.908Z,98661.53
2022-08-24T00:57:06.110Z,98653.66
2022-08-24T00:59:42.276Z,98657.69
2022-08-24T01:02:15.901Z,98662.69
2022-08-24T01:05:00.775Z,98660.84
2022-08-24T01:07:29.686Z,98662.00
2022-08-24T01:10:00.174Z,98655.19
2022-08-24T01:12:29.260Z,98659.91
2022-08-24T01:14:57.929Z,98658.56
2022-08-24T01:17:43.752Z,98663.44
2022-08-24T01:20:11.673Z,98658.75
2022-08-24T01:23:04.506Z,98663.59
2022-08-24T01:25:32.968Z,98660.75
2022-08-24T01:28:04.352Z,98658.56
2022-08-24T01:30:36.134Z,98667.09
2022-08-24T01:33:07.209Z,98671.63
2022-08-24T01:35:38.076Z,98671.44
2022-08-24T01:38:09.287Z,98673.13
2022-08-24T01:40:40.097Z,98673.63
2022-08-24T01:43:08.157Z,98675.81
2022-08-24T01:45:35.179Z,98677.00
2022-08-24T01:48:03.119Z,98677.47
2022-08-24T01:50:31.670Z,98688.22
2022-08-24T01:53:05.297Z,98680.66
2022-08-24T01:55:33.214Z,98676.69
2022-08-24T01:58:00.471Z,98679.84
2022-08-24T02:00:28.047Z,98676.47
2022-08-24T02:02:56.494Z,98689.22
2022-08-24T02:05:24.262Z,98690.03
2022-08-24T02:07:51.414Z,98686.88
2022-08-24T02:10:18.628Z,98695.22
2022-08-24T02:12:57.585Z,98696.69
2022-08-24T02:15:32.777Z,98689.88
2022-08-24T02:18:00.169Z,98691.16
2022-08-24T02:20:26.963Z,98694.84
2022-08-24T02:22:54.937Z,98692.84
2022-08-24T02:25:21.680Z,98696.19
2022-08-24T02:27:48.464Z,98697.34
2022-08-24T02:30:15.683Z,98697.69
2022-08-24T02:32:42.992Z,98693.00
2022-08-24T02:35:10.574Z,98699.19
2022-08-24T02:37:38.934Z,98703.88
2022-08-24T02:40:12.729Z,98703.38
2022-08-24T02:42:39.713Z,98698.84
2022-08-24T02:45:06.907Z,98701.50
2022-08-24T02:47:38.800Z,98708.53
2022-08-24T02:50:08.232Z,98705.69
2022-08-24T02:52:37.105Z,98701.84
2022-08-24T02:55:04.414Z,98703.47
2022-08-24T02:57:30.997Z,98705.50
2022-08-24T02:59:57.485Z,98703.53
2022-08-24T03:02:24.083Z,98691.28
2022-08-24T03:04:50.644Z,98702.50
2022-08-24T03:07:17.204Z,98704.78
2022-08-24T03:09:43.672Z,98711.13
2022-08-24T03:12:10.583Z,98711.63
2022-08-24T03:14:37.852Z,98709.84
2022-08-24T03:17:05.016Z,98710.00
2022-08-24T03:19:31.654Z,98714.38
2022-08-24T03:21:58.156Z,98708.63
2022-08-24T03:24:24.816Z,98705.94
2022-08-24T03:26:51.565Z,98704.78
2022-08-24T03:29:18.364Z,98711.66
2022-08-24T03:31:46.599Z,98709.28
2022-08-24T03:34:13.602Z,98706.59
2022-08-24T03:36:41.245Z,98700.78
2022-08-24T03:39:07.863Z,98699.94
2022-08-24T03:41:35.384Z,98701.25
2022-08-24T03:44:04.161Z,98700.88
2022-08-24T03:46:36.737Z,98702.34
2022-08-24T03:49:08.720Z,98695.97
2022-08-24T03:51:36.632Z,98701.16
2022-08-24T03:54:05.886Z,98695.97
2022-08-24T03:56:32.681Z,98698.78
2022-08-24T03:59:02.046Z,98692.94
2022-08-24T04:01:28.908Z,98699.66
2022-08-24T04:03:55.738Z,98694.13
2022-08-24T04:06:23.067Z,98691.75
2022-08-24T04:08:50.346Z,98694.78
2022-08-24T04:11:21.076Z,98693.94
2022-08-24T04:13:48.037Z,98688.72
2022-08-24T04:16:17.411Z,98697.41
2022-08-24T04:18:44.743Z,98697.56
2022-08-24T04:21:23.624Z,98698.25
2022-08-24T04:23:52.128Z,98701.44
2022-08-24T04:26:24.349Z,98703.28
2022-08-24T04:29:10.581Z,98698.56
2022-08-24T04:31:42.305Z,98696.94
2022-08-24T04:34:10.031Z,98702.47
2022-08-24T04:36:36.585Z,98701.50
2022-08-24T04:39:03.823Z,98695.22
2022-08-24T04:41:31.935Z,98701.41
2022-08-24T04:43:59.555Z,98706.47
2022-08-24T04:46:27.092Z,98702.81
2022-08-24T04:48:53.770Z,98706.03
2022-08-24T04:51:20.950Z,98705.41
2022-08-24T04:53:48.410Z,98711.63
2022-08-24T04:56:24.072Z,98715.19
2022-08-24T04:58:52.341Z,98705.50
2022-08-24T05:01:22.499Z,98712.41
2022-08-24T05:03:50.949Z,98712.06
2022-08-24T05:06:19.938Z,98718.09
2022-08-24T05:08:47.531Z,98721.16
2022-08-24T05:11:15.169Z,98721.34
2022-08-24T05:13:41.670Z,98734.06
2022-08-24T05:16:14.779Z,98727.72
2022-08-24T05:18:42.186Z,98731.25
2022-08-24T05:21:10.738Z,98725.22
2022-08-24T05:23:38.967Z,98727.03
2022-08-24T05:26:19.233Z,98729.66
2022-08-24T05:28:47.035Z,98727.06
2022-08-24T05:31:22.923Z,98730.00
2022-08-24T05:33:50.858Z,98734.97
2022-08-24T05:36:20.649Z,98733.06
2022-08-24T05:38:48.032Z,98720.13
2022-08-24T05:41:15.591Z,98720.69
2022-08-24T05:43:42.412Z,98725.44
2022-08-24T05:46:09.306Z,98726.25
2022-08-24T05:48:37.186Z,98731.56
2022-08-24T05:51:04.782Z,98726.13
2022-08-24T05:53:31.759Z,98741.09
2022-08-24T05:55:58.316Z,98737.81
2022-08-24T05:58:31.094Z,98736.41
2022-08-24T06:00:59.892Z,98735.81
2022-08-24T06:03:27.122Z,98735.16
2022-08-24T06:05:54.884Z,98740.09
2022-08-24T06:08:21.515Z,98732.03
2022-08-24T06:10:47.999Z,98733.50
2022-08-24T06:13:14.820Z,98730.59
2022-08-24T06:15:42.764Z,98741.53
2022-08-24T06:18:14.579Z,98735.59
2022-08-24T06:20:42.642Z,98739.78
2022-08-24T06:23:09.800Z,98740.66
2022-08-24T06:25:58.544Z,98734.94
2022-08-24T06:28:25.776Z,98732.47
2022-08-24T06:31:01.853Z,98737.78
2022-08-24T06:33:28.380Z,98742.22
2022-08-24T06:35:54.832Z,98737.03
2022-08-24T06:38:22.957Z,98743.47
2022-08-24T06:40:49.612Z,98750.91
2022-08-24T06:43:16.204Z,98743.56
2022-08-24T06:45:45.025Z,98741.22
2022-08-24T06:48:11.675Z,98736.06
2022-08-24T06:50:39.428Z,98739.09
2022-08-24T06:53:06.132Z,98744.50
2022-08-24T06:55:32.635Z,98742.63
2022-08-24T06:57:59.108Z,98743.69
2022-08-24T07:00:25.629Z,98741.91
2022-08-24T07:02:52.087Z,98746.09
2022-08-24T07:05:18.681Z,98743.88
2022-08-24T07:07:45.209Z,98746.88
2022-08-24T07:10:11.915Z,98748.16
2022-08-24T07:12:38.466Z,98748.66
2022-08-24T07:15:05.569Z,98739.78
2022-08-24T07:17:42.801Z,98749.09
2022-08-24T07:20:10.146Z,98754.59
2022-08-24T07:22:36.739Z,98748.94
2022-08-24T07:25:03.469Z,98749.03
2022-08-24T07:27:30.014Z,98745.44
2022-08-24T07:30:23.154Z,98757.63
2022-08-24T07:32:43.778Z,98748.78
2022-08-24T07:35:10.234Z,98749.16
2022-08-24T07:37:41.511Z,98756.81
2022-08-24T07:40:09.190Z,98748.41
2022-08-24T07:42:35.816Z,98746.28
2022-08-24T07:45:02.831Z,98747.41
2022-08-24T07:47:54.545Z,98746.06
2022-08-24T07:50:17.455Z,98750.53
2022-08-24T07:52:45.486Z,98755.13
2022-08-24T07:55:13.889Z,98748.09
2022-08-24T07:57:40.972Z,98756.56
2022-08-24T08:00:11.480Z,98756.44
2022-08-24T08:02:40.846Z,98755.38
2022-08-24T08:05:07.838Z,98758.47
2022-08-24T08:07:34.513Z,98763.00
2022-08-24T08:10:01.997Z,98761.34
2022-08-24T08:12:28.509Z,98760.28
2022-08-24T08:14:54.967Z,98762.63
2022-08-24T08:17:21.455Z,98768.81
2022-08-24T08:19:47.952Z,98764.06
2022-08-24T08:22:32.952Z,98767.81
2022-08-24T08:24:59.424Z,98769.28
2022-08-24T08:27:26.029Z,98766.56
2022-08-24T08:29:52.803Z,98777.50
2022-08-24T08:32:20.106Z,98781.97
2022-08-24T08:34:47.582Z,98770.56
2022-08-24T08:37:15.138Z,98767.97
2022-08-24T08:39:41.857Z,98765.81
2022-08-24T08:42:34.159Z,98768.94
2022-08-24T08:45:26.584Z,98764.16
2022-08-24T08:48:23.065Z,98764.03
2022-08-24T08:50:55.867Z,98764.78
2022-08-24T08:53:40.907Z,98761.34
2022-08-24T08:56:35.668Z,98760.09
2022-08-24T08:59:48.700Z,98754.56
2022-08-24T09:02:45.906Z,98760.22
2022-08-24T09:05:34.230Z,98768.28
2022-08-24T09:08:17.427Z,98761.75
2022-08-24T09:11:06.049Z,98763.94
2022-08-24T09:13:44.625Z,98760.97
2022-08-24T09:16:17.057Z,98760.66
2022-08-24T09:19:19.977Z,98765.09
2022-08-24T09:22:13.926Z,98754.91
2022-08-24T09:24:52.839Z,98757.38
2022-08-24T09:27:56.844Z,98752.91
2022-08-24T09:30:33.665Z,98761.03
2022-08-24T09:33:09.521Z,98746.69
2022-08-24T09:35:52.332Z,98746.00
2022-08-24T09:38:21.728Z,98745.03
2022-08-24T09:41:13.498Z,98746.97
2022-08-24T09:44:12.250Z,98741.28
2022-08-24T09:46:57.880Z,98746.53
2022-08-24T09:49:58.271Z,98745.31
2022-08-24T09:52:36.572Z,98749.03
2022-08-24T09:55:27.927Z,98740.81
2022-08-24T09:58:18.288Z,98743.28
2022-08-24T10:01:13.460Z,98744.19
2022-08-24T10:04:06.327Z,98739.91
2022-08-24T10:06:50.656Z,98744.00
2022-08-24T10:09:36.870Z,98746.25
2022-08-24T10:12:21.613Z,98745.50
2022-08-24T10:15:04.092Z,98739.81
2022-08-24T10:17:58.718Z,98735.69
2022-08-24T10:20:50.649Z,98732.41
2022-08-24T10:23:44.966Z,98728.00
2022-08-24T10:26:49.194Z,98724.88
2022-08-24T10:29:29.880Z,98723.16
2022-08-24T10:32:10.276Z,98721.75
2022-08-24T10:35:02.089Z,98715.75
2022-08-24T10:37:47.397Z,98722.75
2022-08-24T10:40:31.675Z,98717.38
2022-08-24T10:43:35.766Z,98710.97
2022-08-24T10:46:16.321Z,98719.34
2022-08-24T10:49:03.629Z,98721.28
2022-08-24T10:52:01.833Z,98722.50
2022-08-24T10:54:32.192Z,98708.72
2022-08-24T10:57:15.790Z,98714.22
2022-08-24T10:59:58.115Z,98722.34
2022-08-24T11:02:40.746Z,98712.66
2022-08-24T11:05:12.090Z,98713.81
2022-08-24T11:07:54.701Z,98710.47
2022-08-24T11:10:31.817Z,98722.44
2022-08-24T11:13:17.281Z,98712.13
2022-08-24T11:15:53.678Z,98718.19
2022-08-24T11:18:22.176Z,98711.50
2022-08-24T11:20:53.138Z,98718.78
2022-08-24T11:23:31.078Z,98715.03
2022-08-24T11:26:24.272Z,98716.66
2022-08-24T11:28:54.237Z,98708.50
2022-08-24T11:31:38.720Z,98712.84
2022-08-24T11:34:09.257Z,98709.66
2022-08-24T11:36:38.387Z,98700.25
2022-08-24T11:39:35.536Z,98704.50
2022-08-24T11:42:06.322Z,98710.69
2022-08-24T11:44:55.643Z,98712.66
2022-08-24T11:48:00.651Z,98697.13
2022-08-24T11:50:35.017Z,98703.72
2022-08-24T11:53:12.627Z,98699.75
2022-08-24T11:56:00.833Z,98697.75
2022-08-24T11:58:56.290Z,98690.19
2022-08-24T12:01:45.039Z,98687.59
2022-08-24T12:04:44.821Z,98683.00
2022-08-24T12:07:23.454Z,98684.25
2022-08-24T12:09:58.974Z,98682.69
2022-08-24T12:12:46.015Z,98671.53
2022-08-24T12:15:34.274Z,98669.66
2022-08-24T12:18:12.011Z,98675.75
2022-08-24T12:20:43.297Z,98680.53
2022-08-24T12:23:37.243Z,98677.50
2022-08-24T12:26:14.001Z,98665.03
2022-08-24T12:28:46.078Z,98670.72
2022-08-24T12:31:32.944Z,98666.22
2022-08-24T12:34:05.291Z,98663.81
2022-08-24T12:36:57.725Z,98675.25
2022-08-24T12:39:34.702Z,98674.03
2022-08-24T12:42:03.779Z,98675.53
2022-08-24T12:44:43.376Z,98673.06
2022-08-24T12:47:10.256Z,98671.69
2022-08-24T12:50:05.789Z,98661.50
2022-08-24T12:52:51.017Z,98667.03
2022-08-24T12:55:52.681Z,98661.13
2022-08-24T12:58:43.899Z,98672.63
2022-08-24T13:01:25.530Z,98665.50
2022-08-24T13:04:27.892Z,98659.28
2022-08-24T13:07:23.682Z,98673.59
2022-08-24T13:09:56.099Z,98663.28
2022-08-24T13:12:38.889Z,98655.88
2022-08-24T13:15:23.593Z,98655.03
2022-08-24T13:18:20.746Z,98657.94
2022-08-24T13:20:50.230Z,98653.03
2022-08-24T13:23:23.112Z,98647.69
2022-08-24T13:26:17.643Z,98649.97
2022-08-24T13:28:56.548Z,98643.00
2022-08-24T13:31:43.433Z,98627.41
2022-08-24T13:34:10.063Z,98634.50
2022-08-24T13:36:39.316Z,98634.31
2022-08-24T13:39:26.697Z,98632.03
2022-08-24T13:42:15.066Z,98633.69
2022-08-24T13:45:08.836Z,98628.19
2022-08-24T13:47:52.672Z,98622.47
2022-08-24T13:50:35.463Z,98629.22
2022-08-24T13:53:20.618Z,98625.00
2022-08-24T13:55:51.187Z,98629.91
2022-08-24T13:58:44.267Z,98625.63
2022-08-24T14:01:59.131Z,98620.03
2022-08-24T14:04:25.731Z,98622.88
2022-08-24T14:07:17.580Z,98628.28
2022-08-24T14:10:35.130Z,98614.38
2022-08-24T14:13:15.259Z,98611.56
2022-08-24T14:16:11.416Z,98621.09
2022-08-24T14:18:52.597Z,98622.31
2022-08-24T14:21:24.230Z,98623.81
2022-08-24T14:24:10.985Z,98605.81
2022-08-24T14:26:38.189Z,98607.38
2022-08-24T14:29:19.939Z,98602.88
2022-08-24T14:32:00.245Z,98609.34
2022-08-24T14:35:12.988Z,98601.38
2022-08-24T14:38:07.204Z,98604.28
2022-08-24T14:40:55.188Z,98597.72
2022-08-24T14:43:31.359Z,98601.06
2022-08-24T14:46:16.620Z,98596.75
2022-08-24T14:49:11.045Z,98586.75
2022-08-24T14:52:07.066Z,98591.28
2022-08-24T14:54:48.453Z,98581.47
2022-08-24T14:57:32.725Z,98581.59
2022-08-24T15:00:15.391Z,98582.78
2022-08-24T15:02:42.721Z,98578.88
2022-08-24T15:05:28.076Z,98583.91
2022-08-24T15:08:07.907Z,98582.19
2022-08-24T15:10:38.659Z,98576.53
2022-08-24T15:13:18.906Z,98576.31
2022-08-24T15:16:10.937Z,98568.53
2022-08-24T15:18:46.646Z,98562.75
2022-08-24T15:21:35.068Z,98566.88
2022-08-24T15:24:11.227Z,98566.94
2022-08-24T15:27:22.521Z,98565.56
2022-08-24T15:29:54.033Z,98560.00
2022-08-24T15:32:28.478Z,98563.19
2022-08-24T15:34:58.298Z,98552.97
2022-08-24T15:37:26.544Z,98550.81
2022-08-24T15:39:53.020Z,98552.72
2022-08-24T15:42:20.019Z,98561.16
2022-08-24T15:44:50.170Z,98553.94
2022-08-24T15:47:19.399Z,98559.72
2022-08-24T15:49:51.841Z,98554.31
2022-08-24T15:52:39.968Z,98560.66
2022-08-24T15:55:13.023Z,98557.88
2022-08-24T15:57:44.241Z,98561.47
2022-08-24T16:00:15.702Z,98566.09
2022-08-24T16:02:42.863Z,98567.50
2022-08-24T16:05:18.823Z,98565.56
2022-08-24T16:08:06.680Z,98558.47
2022-08-24T16:10:33.312Z,98566.88
2022-08-24T16:13:08.242Z,98565.28
2022-08-24T16:15:34.884Z,98570.00
2022-08-24T16:18:01.593Z,98558.13
2022-08-24T16:20:32.604Z,98570.16
2022-08-24T16:23:02.676Z,98562.59
2022-08-24T16:25:31.471Z,98565.72
2022-08-24T16:28:05.382Z,98563.16
2022-08-24T16:30:49.772Z,98565.13
2022-08-24T16:33:32.054Z,98566.06
2022-08-24T16:35:59.979Z,98565.38
2022-08-24T16:38:30.382Z,98574.41
2022-08-24T16:41:02.446Z,98570.91
2022-08-24T16:43:29.885Z,98559.38
2022-08-24T16:45:56.917Z,98567.09
2022-08-24T16:48:23.410Z,98564.75
2022-08-24T16:50:51.189Z,98567.97
2022-08-24T16:53:17.717Z,98568.94
2022-08-24T16:55:44.253Z,98562.88
2022-08-24T16:58:11.175Z,98567.41
2022-08-24T17:00:37.714Z,98559.19
2022-08-24T17:03:04.239Z,98569.31
2022-08-24T17:05:30.794Z,98560.28
2022-08-24T17:07:59.239Z,98564.63
2022-08-24T17:10:27.463Z,98565.47
2022-08-24T17:12:54.367Z,98566.94
2022-08-24T17:15:21.637Z,98563.91
2022-08-24T17:17:56.200Z,98568.88
2022-08-24T17:20:23.060Z,98555.13
2022-08-24T17:22:49.587Z,98569.72
2022-08-24T17:25:16.121Z,98565.59
2022-08-24T17:27:44.348Z,98568.66
2022-08-24T17:30:11.566Z,98573.63
2022-08-24T17:32:38.018Z,98578.31
2022-08-24T17:35:04.788Z,98571.75
2022-08-24T17:37:31.432Z,98577.25
2022-08-24T17:39:59.512Z,98581.09
2022-08-24T17:42:49.477Z,98576.69
2022-08-24T17:45:13.329Z,98573.69
2022-08-24T17:47:40.621Z,98591.25
2022-08-24T17:50:10.178Z,98583.84
2022-08-24T17:52:38.748Z,98579.44
2022-08-24T17:55:07.670Z,98584.34
2022-08-24T17:57:34.127Z,98574.47
2022-08-24T18:00:00.647Z,98584.34
2022-08-24T18:02:27.382Z,98591.75
2022-08-24T18:04:56.409Z,98585.66
2022-08-24T18:07:42.262Z,98590.28
2022-08-24T18:10:11.173Z,98591.03
2022-08-24T18:12:38.844Z,98594.88
2022-08-24T18:15:05.814Z,98594.81
2022-08-24T18:17:38.440Z,98593.88
2022-08-24T18:20:08.818Z,98596.03
2022-08-24T18:22:35.783Z,98602.81
2022-08-24T18:25:02.434Z,98603.78
2022-08-24T18:27:32.626Z,98602.31
2022-08-24T18:30:05.479Z,98602.28
2022-08-24T18:32:35.257Z,98609.44
2022-08-24T18:35:04.861Z,98607.97
2022-08-24T18:37:32.292Z,98605.38
2022-08-24T18:39:58.785Z,98616.25
2022-08-24T18:42:27.337Z,98618.78
2022-08-24T18:44:54.420Z,98620.84
2022-08-24T18:47:20.912Z,98623.50
2022-08-24T18:49:47.420Z,98637.09
2022-08-24T18:52:17.084Z,98634.31
2022-08-24T18:54:46.679Z,98632.69
2022-08-24T18:57:13.563Z,98632.13
2022-08-24T18:59:40.905Z,98628.88
2022-08-24T19:02:31.942Z,98631.47
2022-08-24T19:05:09.356Z,98629.63
2022-08-24T19:07:39.388Z,98636.59
2022-08-24T19:10:08.571Z,98637.47
2022-08-24T19:12:38.769Z,98632.75
2022-08-24T19:15:09.643Z,98636.00
2022-08-24T19:17:56.490Z,98637.03
2022-08-24T19:20:23.221Z,98638.53
2022-08-24T19:22:52.263Z,98634.16
2022-08-24T19:25:27.911Z,98631.69
2022-08-24T19:27:57.396Z,98650.75
2022-08-24T19:30:24.664Z,98645.78
2022-08-24T19:32:51.177Z,98651.22
2022-08-24T19:35:17.886Z,98648.88
2022-08-24T19:37:44.743Z,98646.00
2022-08-24T19:40:11.740Z,98648.31
2022-08-24T19:42:38.741Z,98651.72
2022-08-24T19:45:25.917Z,98643.41
2022-08-24T19:47:52.418Z,98652.25
2022-08-24T19:50:21.274Z,98653.00
2022-08-24T19:52:48.058Z,98649.03
2022-08-24T19:55:15.280Z,98655.56
2022-08-24T19:57:53.983Z,98658.16
2022-08-24T20:00:24.680Z,98656.19
2022-08-24T20:02:53.628Z,98656.97
2022-08-24T20:05:23.471Z,98664.09
2022-08-24T20:07:50.361Z,98655.09
2022-08-24T20:10:19.107Z,98656.69
2022-08-24T20:12:45.747Z,98666.50
2022-08-24T20:15:12.576Z,98659.03
2022-08-24T20:17:39.256Z,98663.06
2022-08-24T20:20:07.675Z,98665.91
2022-08-24T20:22:34.914Z,98665.28
2022-08-24T20:25:01.507Z,98664.91
2022-08-24T20:27:28.860Z,98663.72
2022-08-24T20:29:55.448Z,98669.44
2022-08-24T20:32:22.759Z,98666.44
2022-08-24T20:34:49.811Z,98664.06
2022-08-24T20:37:22.159Z,98670.34
2022-08-24T20:39:48.855Z,98672.53
2022-08-24T20:42:21.092Z,98669.38
2022-08-24T20:44:49.428Z,98676.72
2022-08-24T20:47:17.217Z,98670.94
2022-08-24T20:49:44.006Z,98677.16
2022-08-24T20:52:10.545Z,98669.66
2022-08-24T20:54:39.661Z,98669.66
2022-08-24T20:57:08.942Z,98670.69
2022-08-24T20:59:35.556Z,98673.19
2022-08-24T21:02:03.115Z,98674.44
2022-08-24T21:04:29.922Z,98674.25
2022-08-24T21:06:57.170Z,98676.97
2022-08-24T21:09:24.397Z,98679.47
2022-08-24T21:11:50.872Z,98680.06
2022-08-24T21:14:17.763Z,98675.88
2022-08-24T21:16:44.792Z,98671.56
2022-08-24T21:19:17.321Z,98679.19
2022-08-24T21:21:45.242Z,98676.94
2022-08-24T21:24:11.772Z,98677.09
2022-08-24T21:26:39.459Z,98673.78
2022-08-24T21:29:08.044Z,98680.00
2022-08-24T21:31:35.717Z,98684.59
2022-08-24T21:34:21.154Z,98686.66
2022-08-24T21:36:49.511Z,98682.44
2022-08-24T21:39:19.003Z,98686.84
2022-08-24T21:41:45.793Z,98683.72
2022-08-24T21:44:12.235Z,98688.38
2022-08-24T21:46:39.345Z,98679.75
2022-08-24T21:49:06.375Z,98694.22
2022-08-24T21:51:33.320Z,98682.63
2022-08-24T21:54:00.098Z,98692.09
2022-08-24T21:56:30.776Z,98683.88
2022-08-24T21:58:57.823Z,98685.78
2022-08-24T22:01:24.329Z,98684.72
2022-08-24T22:03:50.854Z,98679.94
2022-08-24T22:06:18.259Z,98684.69
2022-08-24T22:08:44.761Z,98688.34
2022-08-24T22:11:14.999Z,98677.53
2022-08-24T22:13:41.681Z,98672.88
2022-08-24T22:16:09.501Z,98681.59
2022-08-24T22:18:36.040Z,98684.00
2022-08-24T22:21:08.903Z,98684.88
2022-08-24T22:23:35.854Z,98678.34
2022-08-24T22:26:03.102Z,98680.66
2022-08-24T22:28:30.135Z,98679.88
2022-08-24T22:30:56.708Z,98680.84
2022-08-24T22:33:24.022Z,98674.75
2022-08-24T22:35:51.715Z,98674.53
2022-08-24T22:38:19.563Z,98679.16
2022-08-24T22:40:46.292Z,98681.69
2022-08-24T22:43:13.112Z,98679.66
2022-08-24T22:45:39.585Z,98679.59
2022-08-24T22:48:06.063Z,98686.81
2022-08-24T22:50:32.617Z,98677.69
2022-08-24T22:52:59.259Z,98687.69
2022-08-24T22:55:25.793Z,98687.84
2022-08-24T22:57:52.255Z,98685.59
2022-08-24T23:00:19.392Z,98688.28
2022-08-24T23:02:46.051Z,98688.28
2022-08-24T23:05:12.621Z,98694.84
2022-08-24T23:07:39.158Z,98688.72
2022-08-24T23:10:06.716Z,98684.47
2022-08-24T23:12:33.180Z,98683.38
2022-08-24T23:15:00.423Z,98687.47
2022-08-24T23:17:26.932Z,98684.50
2022-08-24T23:20:06.552Z,98686.28
2022-08-24T23:22:36.946Z,98681.56
2022-08-24T23:25:04.918Z,98681.94
2022-08-24T23:27:32.869Z,98680.69
2022-08-24T23:30:07.666Z,98686.38
2022-08-24T23:32:34.096Z,98678.28
2022-08-24T23:35:00.747Z,98681.19
2022-08-24T23:37:27.244Z,98680.38
2022-08-24T23:39:53.755Z,98685.91
2022-08-24T23:42:20.295Z,98688.69
2022-08-24T23:44:46.919Z,98675.16
2022-08-24T23:47:13.880Z,98682.66
2022-08-24T23:49:41.371Z,98677.66
2022-08-24T23:52:07.943Z,98680.72
2022-08-24T23:54:34.855Z,98676.91
2022-08-24T23:57:03.887Z,98678.59
2022-08-24T23:59:30.457Z,98673.03
